Time;durP1;ratioP1;P1;durP2;ratioP2;P2;SDS_P1;SDS_P2;PMS_P1;PMS_P2;Temp;Humidity;BMP_temperature;BMP_pressure;BME280_temperature;BME280_humidity;BME280_pressure;Samples;Min_cycle;Max_cycle;Signal;HPM_P1;HPM_P2
2022/05/11 00:00:28;;;;;;;;;;;;;;;;;;5060585;28;1330;-64
2022/05/11 00:02:53;;;;;;;;;;;;;;;;;;5058881;28;1374;-64
2022/05/11 00:05:18;;;;;;;;;;;;;;;;;;5060388;28;1240;-64
2022/05/11 00:07:44;;;;;;;;;;;;;;;;;;5059701;28;1897;-64
2022/05/11 00:10:12;;;;;;;;;;;;;;;;;;5061054;28;1285;-65
2022/05/11 00:12:39;;;;;;;;;;;;;;;;;;5060439;28;1272;-65
2022/05/11 00:15:04;;;;;;;;;;;;;;;;;;5060561;28;1136;-65
2022/05/11 00:17:29;;;;;;;;;;;;;;;;;;5059677;28;1422;-64
2022/05/11 00:19:54;;;;;;;;;;;;;;;;;;5059731;28;1267;-65
2022/05/11 00:22:20;;;;;;;;;;;;;;;;;;5060665;28;1585;-64
2022/05/11 00:24:45;;;;;;;;;;;;;;;;;;5060704;28;1191;-64
2022/05/11 00:27:10;;;;;;;;;;;;;;;;;;5056182;28;1311;-65
2022/05/11 00:29:35;;;;;;;;;;;;;;;;;;5060485;28;1901;-65
2022/05/11 00:32:00;;;;;;;;;;;;;;;;;;5057289;28;1527;-65
2022/05/11 00:34:26;;;;;;;;;;;;;;;;;;5060730;28;1255;-65
2022/05/11 00:36:51;;;;;;;;;;;;;;;;;;5067108;28;1247;-65
2022/05/11 00:39:16;;;;;;;;;;;;;;;;;;5066487;28;1358;-65
2022/05/11 00:41:42;;;;;;;;;;;;;;;;;;5066559;28;1428;-65
2022/05/11 00:44:09;;;;;;;;;;;;;;;;;;5062705;28;1247;-65
2022/05/11 00:46:47;;;;;;;;;;;;;;;;;;5065679;28;1356;-65
2022/05/11 00:49:33;;;;;;;;;;;;;;;;;;5065921;28;1960;-65
2022/05/11 00:52:01;;;;;;;;;;;;;;;;;;5060635;28;1194;-65
2022/05/11 00:54:28;;;;;;;;;;;;;;;;;;5064641;28;1402;-65
2022/05/11 00:56:55;;;;;;;;;;;;;;;;;;5062123;28;1484;-65
2022/05/11 00:59:23;;;;;;;;;;;;;;;;;;5066306;28;1342;-65
2022/05/11 01:01:49;;;;;;;;;;;;;;;;;;5066462;28;1279;-65
2022/05/11 01:04:16;;;;;;;;;;;;;;;;;;5066392;28;1436;-65
2022/05/11 01:06:42;;;;;;;;;;;;;;;;;;5067361;28;1434;-65
2022/05/11 01:09:07;;;;;;;;;;;;;;;;;;5064762;28;1943;-65
2022/05/11 01:11:36;;;;;;;;;;;;;;;;;;5066295;28;1337;-65
2022/05/11 01:14:03;;;;;;;;;;;;;;;;;;5066294;28;1290;-65
2022/05/11 01:16:29;;;;;;;;;;;;;;;;;;5066122;28;1373;-65
2022/05/11 01:18:57;;;;;;;;;;;;;;;;;;5064854;28;1458;-65
2022/05/11 01:21:25;;;;;;;;;;;;;;;;;;5065744;28;1096;-65
2022/05/11 01:24:00;;;;;;;;;;;;;;;;;;5066309;28;1291;-65
2022/05/11 01:26:25;;;;;;;;;;;;;;;;;;5065979;28;1183;-65
2022/05/11 01:28:54;;;;;;;;;;;;;;;;;;5066284;28;1918;-65
2022/05/11 01:31:19;;;;;;;;;;;;;;;;;;5065607;28;1435;-66
2022/05/11 01:33:47;;;;;;;;;;;;;;;;;;5065785;28;1147;-65
2022/05/11 01:36:21;;;;;;;;;;;;;;;;;;5065879;28;1628;-66
2022/05/11 01:38:47;;;;;;;;;;;;;;;;;;5064167;28;1330;-65
2022/05/11 01:41:16;;;;;;;;;;;;;;;;;;5065522;28;1264;-65
2022/05/11 01:43:41;;;;;;;;;;;;;;;;;;5063949;28;1203;-65
2022/05/11 01:46:07;;;;;;;;;;;;;;;;;;5063720;28;1400;-65
2022/05/11 01:48:33;;;;;;;;;;;;;;;;;;5059833;28;1971;-65
2022/05/11 01:50:58;;;;;;;;;;;;;;;;;;5062587;28;1348;-65
2022/05/11 01:53:24;;;;;;;;;;;;;;;;;;5061013;28;1452;-65
2022/05/11 01:55:50;;;;;;;;;;;;;;;;;;5062212;28;1360;-65
2022/05/11 01:58:15;;;;;;;;;;;;;;;;;;5060934;28;1552;-65
2022/05/11 02:00:42;;;;;;;;;;;;;;;;;;5061615;28;1351;-65
2022/05/11 02:03:08;;;;;;;;;;;;;;;;;;5062103;28;1624;-65
2022/05/11 02:08:17;;;;;;;;;;;;;;;;;;5061440;28;1982;-65
2022/05/11 02:10:42;;;;;;;;;;;;;;;;;;5062945;28;1251;-65
2022/05/11 02:13:07;;;;;;;;;;;;;;;;;;5062157;28;1314;-65
2022/05/11 02:15:33;;;;;;;;;;;;;;;;;;5061733;28;1247;-66
2022/05/11 02:17:58;;;;;;;;;;;;;;;;;;5060893;28;1412;-66
2022/05/11 02:20:24;;;;;;;;;;;;;;;;;;5061419;28;1303;-66
2022/05/11 02:22:49;;;;;;;;;;;;;;;;;;5059352;28;1235;-65
2022/05/11 02:25:15;;;;;;;;;;;;;;;;;;5060759;28;1331;-65
2022/05/11 02:27:41;;;;;;;;;;;;;;;;;;5062083;28;1244;-66
2022/05/11 02:30:07;;;;;;;;;;;;;;;;;;5061914;28;1894;-65
2022/05/11 02:32:33;;;;;;;;;;;;;;;;;;5060137;28;1379;-65
2022/05/11 02:35:13;;;;;;;;;;;;;;;;;;5061606;28;1243;-66
2022/05/11 02:37:59;;;;;;;;;;;;;;;;;;5058453;28;1362;-65
2022/05/11 02:40:25;;;;;;;;;;;;;;;;;;5060794;28;1398;-65
2022/05/11 02:42:51;;;;;;;;;;;;;;;;;;5062417;28;1223;-65
2022/05/11 02:45:17;;;;;;;;;;;;;;;;;;5061553;28;1191;-65
2022/05/11 02:47:43;;;;;;;;;;;;;;;;;;5059299;28;1409;-65
2022/05/11 02:50:09;;;;;;;;;;;;;;;;;;5061451;28;1949;-65
2022/05/11 02:52:35;;;;;;;;;;;;;;;;;;5060480;28;1485;-65
2022/05/11 02:55:00;;;;;;;;;;;;;;;;;;5060810;28;1430;-65
2022/05/11 02:57:25;;;;;;;;;;;;;;;;;;5059791;28;1235;-65
2022/05/11 02:59:51;;;;;;;;;;;;;;;;;;5061190;28;1227;-65
2022/05/11 03:02:20;;;;;;;;;;;;;;;;;;5061598;28;1533;-66
2022/05/11 03:04:46;;;;;;;;;;;;;;;;;;5053358;28;1357;-65
2022/05/11 03:07:11;;;;;;;;;;;;;;;;;;5061350;28;1359;-65
2022/05/11 03:09:36;;;;;;;;;;;;;;;;;;5060885;28;1969;-66
2022/05/11 03:12:01;;;;;;;;;;;;;;;;;;5061419;28;1322;-65
2022/05/11 03:14:26;;;;;;;;;;;;;;;;;;5061393;28;1302;-65
2022/05/11 03:16:52;;;;;;;;;;;;;;;;;;5059991;28;1371;-65
2022/05/11 03:19:17;;;;;;;;;;;;;;;;;;5059730;28;1342;-65
2022/05/11 03:21:42;;;;;;;;;;;;;;;;;;5061811;28;1211;-65
2022/05/11 03:24:07;;;;;;;;;;;;;;;;;;5061714;28;1287;-65
2022/05/11 03:26:34;;;;;;;;;;;;;;;;;;5061603;28;1259;-65
2022/05/11 03:28:59;;;;;;;;;;;;;;;;;;5060479;28;1957;-65
2022/05/11 03:31:25;;;;;;;;;;;;;;;;;;5059325;28;1395;-65
2022/05/11 03:36:33;;;;;;;;;;;;;;;;;;5060886;28;1119;-65
2022/05/11 03:38:59;;;;;;;;;;;;;;;;;;5061229;28;1387;-66
2022/05/11 03:41:24;;;;;;;;;;;;;;;;;;5060777;28;1506;-65
2022/05/11 03:43:49;;;;;;;;;;;;;;;;;;5061126;28;1230;-65
2022/05/11 03:46:15;;;;;;;;;;;;;;;;;;5058931;28;1438;-65
2022/05/11 03:48:40;;;;;;;;;;;;;;;;;;5059713;28;1890;-65
2022/05/11 03:51:05;;;;;;;;;;;;;;;;;;5056927;28;1199;-66
2022/05/11 03:53:31;;;;;;;;;;;;;;;;;;5058905;28;1336;-65
2022/05/11 03:55:56;;;;;;;;;;;;;;;;;;5060376;28;1314;-65
2022/05/11 03:58:21;;;;;;;;;;;;;;;;;;5060309;28;1259;-66
2022/05/11 04:00:46;;;;;;;;;;;;;;;;;;5057294;28;1614;-65
2022/05/11 04:03:11;;;;;;;;;;;;;;;;;;5060529;28;1354;-65
2022/05/11 04:05:37;;;;;;;;;;;;;;;;;;5060398;28;1140;-65
2022/05/11 04:08:02;;;;;;;;;;;;;;;;;;5059204;28;1889;-65
2022/05/11 04:10:27;;;;;;;;;;;;;;;;;;5059855;28;1283;-66
2022/05/11 04:12:53;;;;;;;;;;;;;;;;;;5060171;28;1171;-65
2022/05/11 04:15:18;;;;;;;;;;;;;;;;;;5060085;28;1280;-65
2022/05/11 04:17:44;;;;;;;;;;;;;;;;;;5059199;28;1417;-66
2022/05/11 04:20:10;;;;;;;;;;;;;;;;;;5060965;28;1434;-65
2022/05/11 04:22:36;;;;;;;;;;;;;;;;;;5058716;28;1152;-65
2022/05/11 04:25:01;;;;;;;;;;;;;;;;;;5060442;28;1269;-65
2022/05/11 04:27:26;;;;;;;;;;;;;;;;;;5057970;28;1340;-65
2022/05/11 04:29:51;;;;;;;;;;;;;;;;;;5054799;28;1894;-65
2022/05/11 04:32:17;;;;;;;;;;;;;;;;;;5058768;28;1460;-65
2022/05/11 04:34:42;;;;;;;;;;;;;;;;;;5060210;28;1255;-65
2022/05/11 04:37:07;;;;;;;;;;;;;;;;;;5060216;28;1332;-65
2022/05/11 04:39:33;;;;;;;;;;;;;;;;;;5059751;28;1378;-65
2022/05/11 04:41:59;;;;;;;;;;;;;;;;;;5055558;28;1407;-65
2022/05/11 04:44:24;;;;;;;;;;;;;;;;;;5058663;28;1271;-65
2022/05/11 04:46:49;;;;;;;;;;;;;;;;;;5056858;28;1491;-65
2022/05/11 04:49:20;;;;;;;;;;;;;;;;;;5059388;28;1926;-65
2022/05/11 04:51:59;;;;;;;;;;;;;;;;;;5057261;28;1232;-65
2022/05/11 04:54:25;;;;;;;;;;;;;;;;;;5059232;28;1339;-65
2022/05/11 04:56:50;;;;;;;;;;;;;;;;;;5057684;28;1411;-65
2022/05/11 04:59:15;;;;;;;;;;;;;;;;;;5059440;28;1235;-65
2022/05/11 05:01:40;;;;;;;;;;;;;;;;;;5059808;28;1356;-65
2022/05/11 05:04:06;;;;;;;;;;;;;;;;;;5060052;28;1223;-65
2022/05/11 05:06:34;;;;;;;;;;;;;;;;;;5059589;28;1267;-65
2022/05/11 05:09:00;;;;;;;;;;;;;;;;;;5058730;28;1897;-66
2022/05/11 05:11:25;;;;;;;;;;;;;;;;;;5058922;28;1438;-65
2022/05/11 05:13:50;;;;;;;;;;;;;;;;;;5060349;28;1283;-66
2022/05/11 05:16:16;;;;;;;;;;;;;;;;;;5058757;28;1337;-65
2022/05/11 05:18:41;;;;;;;;;;;;;;;;;;5058392;28;1382;-65
2022/05/11 05:21:06;;;;;;;;;;;;;;;;;;5060792;28;1259;-65
2022/05/11 05:23:31;;;;;;;;;;;;;;;;;;5061918;28;1403;-65
2022/05/11 05:25:56;;;;;;;;;;;;;;;;;;5061923;28;1193;-65
2022/05/11 05:31:06;;;;;;;;;;;;;;;;;;5061296;28;1334;-65
2022/05/11 05:33:35;;;;;;;;;;;;;;;;;;5062386;28;1254;-65
2022/05/11 05:36:01;;;;;;;;;;;;;;;;;;5062796;28;1242;-65
2022/05/11 05:38:27;;;;;;;;;;;;;;;;;;5061858;28;1341;-65
2022/05/11 05:40:52;;;;;;;;;;;;;;;;;;5062239;28;1311;-65
2022/05/11 05:43:18;;;;;;;;;;;;;;;;;;5062889;28;1247;-65
2022/05/11 05:46:01;;;;;;;;;;;;;;;;;;5060246;28;1401;-64
2022/05/11 05:48:26;;;;;;;;;;;;;;;;;;5060938;28;1901;-65
2022/05/11 05:50:51;;;;;;;;;;;;;;;;;;5062212;28;1151;-66
2022/05/11 05:53:21;;;;;;;;;;;;;;;;;;5061194;28;1360;-65
2022/05/11 05:55:48;;;;;;;;;;;;;;;;;;5061355;28;1199;-66
2022/05/11 05:58:13;;;;;;;;;;;;;;;;;;5062492;28;1354;-65
2022/05/11 06:00:38;;;;;;;;;;;;;;;;;;5060966;28;1350;-65
2022/05/11 06:03:04;;;;;;;;;;;;;;;;;;5061831;28;1263;-65
2022/05/11 06:05:29;;;;;;;;;;;;;;;;;;5060950;28;1446;-64
2022/05/11 06:07:55;;;;;;;;;;;;;;;;;;5058042;28;1593;-64
2022/05/11 06:10:20;;;;;;;;;;;;;;;;;;5059982;28;1965;-64
2022/05/11 06:12:45;;;;;;;;;;;;;;;;;;5061525;28;1231;-66
2022/05/11 06:15:13;;;;;;;;;;;;;;;;;;5061381;28;1306;-64
2022/05/11 06:17:38;;;;;;;;;;;;;;;;;;5062547;28;1281;-64
2022/05/11 06:20:03;;;;;;;;;;;;;;;;;;5062459;28;1333;-64
2022/05/11 06:22:29;;;;;;;;;;;;;;;;;;5061992;28;1347;-65
2022/05/11 06:24:54;;;;;;;;;;;;;;;;;;5057838;28;1385;-65
2022/05/11 06:27:20;;;;;;;;;;;;;;;;;;5061821;28;1224;-65
2022/05/11 06:29:53;;;;;;;;;;;;;;;;;;5060564;28;1906;-65
2022/05/11 06:32:19;;;;;;;;;;;;;;;;;;5060103;28;1263;-65
2022/05/11 06:34:44;;;;;;;;;;;;;;;;;;5061852;28;1342;-65
2022/05/11 06:37:09;;;;;;;;;;;;;;;;;;5062733;28;1215;-65
2022/05/11 06:39:35;;;;;;;;;;;;;;;;;;5055260;28;1593;-65
2022/05/11 06:42:00;;;;;;;;;;;;;;;;;;5060585;28;1325;-65
2022/05/11 06:44:25;;;;;;;;;;;;;;;;;;5061353;28;1246;-65
2022/05/11 06:46:51;;;;;;;;;;;;;;;;;;5061205;28;1219;-65
2022/05/11 06:49:16;;;;;;;;;;;;;;;;;;5060671;28;1927;-65
2022/05/11 06:51:41;;;;;;;;;;;;;;;;;;5055494;28;1258;-70
2022/05/11 06:59:34;;;;;;;;;;;;;;;;;;5061993;28;1271;-70
2022/05/11 07:02:03;;;;;;;;;;;;;;;;;;5060196;28;1455;-69
2022/05/11 07:04:28;;;;;;;;;;;;;;;;;;5060054;28;1335;-70
2022/05/11 07:06:54;;;;;;;;;;;;;;;;;;5061167;28;1333;-70
2022/05/11 07:09:20;;;;;;;;;;;;;;;;;;5060314;28;1965;-67
2022/05/11 07:14:29;;;;;;;;;;;;;;;;;;5055998;28;1248;-67
2022/05/11 07:16:54;;;;;;;;;;;;;;;;;;5060213;28;1406;-67
2022/05/11 07:19:23;;;;;;;;;;;;;;;;;;5060587;28;1369;-64
2022/05/11 07:21:48;;;;;;;;;;;;;;;;;;5056777;28;1352;-63
2022/05/11 07:24:13;;;;;;;;;;;;;;;;;;5060878;28;1301;-63
2022/05/11 07:26:38;;;;;;;;;;;;;;;;;;5061133;28;1274;-63
2022/05/11 07:29:04;;;;;;;;;;;;;;;;;;5061223;28;2340;-64
2022/05/11 07:31:30;;;;;;;;;;;;;;;;;;5060795;28;1254;-63
2022/05/11 07:33:55;;;;;;;;;;;;;;;;;;5060534;28;1326;-63
2022/05/11 07:36:21;;;;;;;;;;;;;;;;;;5061204;28;1349;-63
2022/05/11 07:38:46;;;;;;;;;;;;;;;;;;5055521;28;1350;-63
2022/05/11 07:41:11;;;;;;;;;;;;;;;;;;5058171;28;1348;-63
2022/05/11 07:43:37;;;;;;;;;;;;;;;;;;5060516;28;1318;-63
2022/05/11 07:46:03;;;;;;;;;;;;;;;;;;5059729;28;1258;-63
2022/05/11 07:48:28;;;;;;;;;;;;;;;;;;5058747;28;1968;-63
2022/05/11 07:50:54;;;;;;;;;;;;;;;;;;5061642;28;1298;-63
2022/05/11 07:53:19;;;;;;;;;;;;;;;;;;5060796;28;1293;-63
2022/05/11 07:55:44;;;;;;;;;;;;;;;;;;5059274;28;1388;-63
2022/05/11 08:00:57;;;;;;;;;;;;;;;;;;5059749;28;1304;-64
2022/05/11 08:03:23;;;;;;;;;;;;;;;;;;5060496;28;1345;-64
2022/05/11 08:05:48;;;;;;;;;;;;;;;;;;5059563;28;1597;-64
2022/05/11 08:08:13;;;;;;;;;;;;;;;;;;5060661;28;1894;-64
2022/05/11 08:10:40;;;;;;;;;;;;;;;;;;5059658;28;1526;-64
2022/05/11 08:13:07;;;;;;;;;;;;;;;;;;5059080;28;1513;-64
2022/05/11 08:15:33;;;;;;;;;;;;;;;;;;5058005;28;1371;-63
2022/05/11 08:18:00;;;;;;;;;;;;;;;;;;5059720;28;1242;-63
2022/05/11 08:20:27;;;;;;;;;;;;;;;;;;5060486;28;1432;-63
2022/05/11 08:22:52;;;;;;;;;;;;;;;;;;5060473;28;1262;-64
2022/05/11 08:25:20;;;;;;;;;;;;;;;;;;5060315;28;1194;-63
2022/05/11 08:27:46;;;;;;;;;;;;;;;;;;5059378;28;1379;-64
2022/05/11 08:35:40;;;;;;;;;;;;;;;;;;5057990;28;1348;-64
2022/05/11 08:38:06;;;;;;;;;;;;;;;;;;5054484;28;1423;-64
2022/05/11 08:40:34;;;;;;;;;;;;;;;;;;5060030;28;1213;-63
2022/05/11 08:43:02;;;;;;;;;;;;;;;;;;5060734;28;1239;-63
2022/05/11 08:45:31;;;;;;;;;;;;;;;;;;5059028;28;1107;-63
2022/05/11 08:47:57;;;;;;;;;;;;;;;;;;5055599;28;1373;-63
2022/05/11 08:50:26;;;;;;;;;;;;;;;;;;5050978;28;1890;-63
2022/05/11 08:52:57;;;;;;;;;;;;;;;;;;5059844;28;1195;-63
2022/05/11 08:55:41;;;;;;;;;;;;;;;;;;5059943;28;1183;-64
2022/05/11 08:58:09;;;;;;;;;;;;;;;;;;5063126;28;1386;-63
2022/05/11 09:00:35;;;;;;;;;;;;;;;;;;5061903;28;1274;-64
2022/05/11 09:03:21;;;;;;;;;;;;;;;;;;5057980;28;1344;-63
2022/05/11 09:05:46;;;;;;;;;;;;;;;;;;5060313;28;1339;-63
2022/05/11 09:08:12;;;;;;;;;;;;;;;;;;5060115;28;1969;-63
2022/05/11 09:10:38;;;;;;;;;;;;;;;;;;5062596;28;1521;-63
2022/05/11 09:13:05;;;;;;;;;;;;;;;;;;5061157;28;1347;-63
2022/05/11 09:15:49;;;;;;;;;;;;;;;;;;5061442;28;1361;-63
2022/05/11 09:18:15;;;;;;;;;;;;;;;;;;5061926;28;1295;-63
2022/05/11 09:20:45;;;;;;;;;;;;;;;;;;5062145;28;1430;-64
2022/05/11 09:23:10;;;;;;;;;;;;;;;;;;5063267;28;1380;-64
2022/05/11 09:25:36;;;;;;;;;;;;;;;;;;5060696;28;1389;-64
2022/05/11 09:28:18;;;;;;;;;;;;;;;;;;5062863;28;1353;-64
2022/05/11 09:30:55;;;;;;;;;;;;;;;;;;5062225;28;1198;-64
2022/05/11 09:33:28;;;;;;;;;;;;;;;;;;5058902;28;1396;-64
2022/05/11 09:35:55;;;;;;;;;;;;;;;;;;5059797;28;1425;-64
2022/05/11 09:38:20;;;;;;;;;;;;;;;;;;5061878;28;1336;-63
2022/05/11 09:40:56;;;;;;;;;;;;;;;;;;5062059;28;1426;-64
2022/05/11 09:43:27;;;;;;;;;;;;;;;;;;5061931;28;1274;-64
2022/05/11 09:45:53;;;;;;;;;;;;;;;;;;5062925;28;1226;-64
2022/05/11 09:48:27;;;;;;;;;;;;;;;;;;5059064;28;1949;-64
2022/05/11 09:50:56;;;;;;;;;;;;;;;;;;5062492;28;1259;-63
2022/05/11 09:53:23;;;;;;;;;;;;;;;;;;5062655;28;1251;-63
2022/05/11 09:55:49;;;;;;;;;;;;;;;;;;5062473;28;1211;-63
2022/05/11 09:58:25;;;;;;;;;;;;;;;;;;5062761;28;1255;-63
2022/05/11 10:00:50;;;;;;;;;;;;;;;;;;5061490;28;1395;-63
2022/05/11 10:03:20;;;;;;;;;;;;;;;;;;5063033;28;1349;-63
2022/05/11 10:05:50;;;;;;;;;;;;;;;;;;5062233;28;1262;-63
2022/05/11 10:08:21;;;;;;;;;;;;;;;;;;5061299;28;1962;-63
2022/05/11 10:10:51;;;;;;;;;;;;;;;;;;5061092;28;1275;-63
2022/05/11 10:13:29;;;;;;;;;;;;;;;;;;5062531;28;1199;-63
2022/05/11 10:24:17;;;;;;;;;;;;;;;;;;5061258;28;1462;-63
2022/05/11 10:26:48;;;;;;;;;;;;;;;;;;5059640;28;1341;-63
2022/05/11 10:29:25;;;;;;;;;;;;;;;;;;5057414;28;1898;-64
2022/05/11 10:32:09;;;;;;;;;;;;;;;;;;5061697;28;1250;-64
2022/05/11 10:34:43;;;;;;;;;;;;;;;;;;5060344;28;1220;-64
2022/05/11 10:37:08;;;;;;;;;;;;;;;;;;5062348;28;1338;-64
2022/05/11 10:39:52;;;;;;;;;;;;;;;;;;5063169;28;1374;-65
2022/05/11 10:42:23;;;;;;;;;;;;;;;;;;5060431;28;1184;-65
2022/05/11 10:45:02;;;;;;;;;;;;;;;;;;5056811;28;1631;-67
2022/05/11 10:47:38;;;;;;;;;;;;;;;;;;5055201;28;1507;-67
2022/05/11 10:50:16;;;;;;;;;;;;;;;;;;5065851;28;1905;-67
2022/05/11 10:52:59;;;;;;;;;;;;;;;;;;5063405;28;1280;-66
2022/05/11 10:55:25;;;;;;;;;;;;;;;;;;5065918;28;1231;-67
2022/05/11 10:57:56;;;;;;;;;;;;;;;;;;5065756;28;1407;-67
2022/05/11 11:00:23;;;;;;;;;;;;;;;;;;5058927;28;1403;-67
2022/05/11 11:03:07;;;;;;;;;;;;;;;;;;5060192;28;1454;-69
2022/05/11 11:07:11;;;;;;;;;;;;;;;;;;5062444;28;1211;-68
2022/05/11 11:08:49;;;;;;;;;;;;;;;;;;5059181;28;1961;-69
2022/05/11 11:11:20;;;;;;;;;;;;;;;;;;5060329;28;1264;-67
2022/05/11 11:14:00;;;;;;;;;;;;;;;;;;5072255;28;1499;-67
2022/05/11 11:16:33;;;;;;;;;;;;;;;;;;5055378;28;1390;-67
2022/05/11 11:18:58;;;;;;;;;;;;;;;;;;5055538;28;1553;-68
2022/05/11 11:21:24;;;;;;;;;;;;;;;;;;5057717;28;1390;-68
2022/05/11 11:24:08;;;;;;;;;;;;;;;;;;5055624;28;1441;-68
2022/05/11 11:26:36;;;;;;;;;;;;;;;;;;5058190;28;1338;-69
2022/05/11 11:29:01;;;;;;;;;;;;;;;;;;5059394;28;1906;-68
2022/05/11 11:31:27;;;;;;;;;;;;;;;;;;5060940;28;1262;-68
2022/05/11 11:33:52;;;;;;;;;;;;;;;;;;5059102;28;1356;-68
2022/05/11 11:36:17;;;;;;;;;;;;;;;;;;5057965;28;1372;-68
2022/05/11 11:38:42;;;;;;;;;;;;;;;;;;5060296;28;1286;-68
2022/05/11 11:41:21;;;;;;;;;;;;;;;;;;5061397;28;1180;-68
2022/05/11 11:43:49;;;;;;;;;;;;;;;;;;5058069;28;1386;-68
2022/05/11 11:46:30;;;;;;;;;;;;;;;;;;5062366;28;1192;-68
2022/05/11 11:49:02;;;;;;;;;;;;;;;;;;5058926;28;1953;-68
2022/05/11 11:51:31;;;;;;;;;;;;;;;;;;5060401;28;1343;-68
2022/05/11 11:53:57;;;;;;;;;;;;;;;;;;5056149;28;1199;-68
2022/05/11 11:56:22;;;;;;;;;;;;;;;;;;5060286;28;1366;-68
2022/05/11 11:58:59;;;;;;;;;;;;;;;;;;5058983;28;1531;-68
2022/05/11 12:01:25;;;;;;;;;;;;;;;;;;5059889;28;1198;-67
2022/05/11 12:03:54;;;;;;;;;;;;;;;;;;5059057;28;1301;-68
2022/05/11 12:17:30;;;;;;;;;;;;;;;;;;5057248;28;1216;-69
2022/05/11 12:19:59;;;;;;;;;;;;;;;;;;5054933;28;1471;-68
2022/05/11 12:22:25;;;;;;;;;;;;;;;;;;5057688;28;1385;-68
2022/05/11 12:25:11;;;;;;;;;;;;;;;;;;5059610;28;1346;-68
2022/05/11 12:27:37;;;;;;;;;;;;;;;;;;5057838;28;1605;-68
2022/05/11 12:30:06;;;;;;;;;;;;;;;;;;5059991;28;1989;-68
2022/05/11 12:32:33;;;;;;;;;;;;;;;;;;5058922;28;1268;-68
2022/05/11 12:35:06;;;;;;;;;;;;;;;;;;5059775;28;1485;-68
2022/05/11 12:37:34;;;;;;;;;;;;;;;;;;5058179;28;1847;-68
2022/05/11 12:40:01;;;;;;;;;;;;;;;;;;5056654;28;1301;-68
2022/05/11 12:42:32;;;;;;;;;;;;;;;;;;5060566;28;826;-67
2022/05/11 12:44:57;;;;;;;;;;;;;;;;;;5058670;28;1397;-67
2022/05/11 12:47:24;;;;;;;;;;;;;;;;;;5057710;28;1435;-68
2022/05/11 12:49:49;;;;;;;;;;;;;;;;;;5059268;28;2018;-68
2022/05/11 12:52:16;;;;;;;;;;;;;;;;;;5060293;28;949;-69
2022/05/11 12:54:53;;;;;;;;;;;;;;;;;;5059436;28;1372;-69
2022/05/11 12:57:19;;;;;;;;;;;;;;;;;;5060436;28;857;-68
2022/05/11 12:59:48;;;;;;;;;;;;;;;;;;5059430;28;1613;-68
2022/05/11 13:02:16;;;;;;;;;;;;;;;;;;5060131;28;1624;-68
2022/05/11 13:04:51;;;;;;;;;;;;;;;;;;5059594;28;1450;-69
2022/05/11 13:07:20;;;;;;;;;;;;;;;;;;5060101;28;1420;-69
2022/05/11 13:09:46;;;;;;;;;;;;;;;;;;5058621;28;1898;-67
2022/05/11 13:12:12;;;;;;;;;;;;;;;;;;5050560;28;1911;-67
2022/05/11 13:14:44;;;;;;;;;;;;;;;;;;5061182;28;1699;-69
2022/05/11 13:17:17;;;;;;;;;;;;;;;;;;5059249;28;1513;-69
2022/05/11 13:19:42;;;;;;;;;;;;;;;;;;5055991;28;1428;-69
2022/05/11 13:22:11;;;;;;;;;;;;;;;;;;5059683;28;1282;-69
2022/05/11 13:24:36;;;;;;;;;;;;;;;;;;5059759;28;965;-69
2022/05/11 13:27:02;;;;;;;;;;;;;;;;;;5059078;28;1453;-69
2022/05/11 13:29:27;;;;;;;;;;;;;;;;;;5057830;28;1953;-69
2022/05/11 13:32:01;;;;;;;;;;;;;;;;;;5060097;28;988;-69
2022/05/11 13:34:32;;;;;;;;;;;;;;;;;;5050385;28;1312;-69
2022/05/11 13:36:59;;;;;;;;;;;;;;;;;;5059557;28;1298;-69
2022/05/11 13:39:24;;;;;;;;;;;;;;;;;;5056370;28;1520;-68
2022/05/11 13:41:49;;;;;;;;;;;;;;;;;;5056029;28;1401;-69
2022/05/11 13:44:33;;;;;;;;;;;;;;;;;;5063039;28;1238;-69
2022/05/11 13:49:43;;;;;;;;;;;;;;;;;;5062215;28;1895;-69
2022/05/11 13:52:29;;;;;;;;;;;;;;;;;;5056606;28;1597;-69
2022/05/11 13:54:54;;;;;;;;;;;;;;;;;;5059295;28;1383;-69
2022/05/11 13:57:27;;;;;;;;;;;;;;;;;;5065475;28;1414;-69
2022/05/11 13:59:53;;;;;;;;;;;;;;;;;;5059723;28;1475;-68
2022/05/11 14:02:18;;;;;;;;;;;;;;;;;;5058896;28;1604;-69
2022/05/11 14:04:44;;;;;;;;;;;;;;;;;;5057894;28;1601;-70
2022/05/11 14:07:11;;;;;;;;;;;;;;;;;;5062136;28;1172;-69
2022/05/11 14:09:38;;;;;;;;;;;;;;;;;;5056536;28;1939;-69
2022/05/11 14:12:04;;;;;;;;;;;;;;;;;;5058037;28;1572;-69
2022/05/11 14:14:29;;;;;;;;;;;;;;;;;;5059499;28;1362;-69
2022/05/11 14:16:56;;;;;;;;;;;;;;;;;;5057004;28;1406;-68
2022/05/11 14:19:23;;;;;;;;;;;;;;;;;;5060626;28;1375;-69
2022/05/11 14:21:50;;;;;;;;;;;;;;;;;;5062018;28;1191;-69
2022/05/11 14:24:16;;;;;;;;;;;;;;;;;;5061397;28;1470;-70
2022/05/11 14:26:42;;;;;;;;;;;;;;;;;;5062044;28;1334;-70
2022/05/11 14:29:07;;;;;;;;;;;;;;;;;;5061279;28;1894;-70
2022/05/11 14:31:33;;;;;;;;;;;;;;;;;;5060518;28;1590;-71
2022/05/11 14:33:59;;;;;;;;;;;;;;;;;;5059382;28;1373;-70
2022/05/11 14:36:24;;;;;;;;;;;;;;;;;;5059865;28;1343;-70
2022/05/11 14:38:49;;;;;;;;;;;;;;;;;;5058852;28;2661;-70
2022/05/11 14:41:15;;;;;;;;;;;;;;;;;;5060699;28;1200;-71
2022/05/11 14:43:40;;;;;;;;;;;;;;;;;;5060006;28;1463;-71
2022/05/11 14:46:10;;;;;;;;;;;;;;;;;;5055917;28;1366;-71
2022/05/11 14:48:36;;;;;;;;;;;;;;;;;;5055155;28;1902;-71
2022/05/11 14:51:02;;;;;;;;;;;;;;;;;;5061716;28;1356;-71
2022/05/11 14:53:28;;;;;;;;;;;;;;;;;;5060685;28;1167;-70
2022/05/11 14:55:53;;;;;;;;;;;;;;;;;;5060177;28;1258;-71
2022/05/11 15:03:47;;;;;;;;;;;;;;;;;;5060010;28;1359;-71
2022/05/11 15:06:15;;;;;;;;;;;;;;;;;;5057730;28;1348;-71
2022/05/11 15:08:40;;;;;;;;;;;;;;;;;;5060830;28;1965;-70
2022/05/11 15:13:49;;;;;;;;;;;;;;;;;;5060088;28;1334;-69
2022/05/11 15:16:14;;;;;;;;;;;;;;;;;;5056429;28;1548;-69
2022/05/11 15:18:40;;;;;;;;;;;;;;;;;;5060241;28;1332;-69
2022/05/11 15:21:05;;;;;;;;;;;;;;;;;;5061005;28;1322;-69
2022/05/11 15:23:30;;;;;;;;;;;;;;;;;;5060151;28;1310;-69
2022/05/11 15:25:56;;;;;;;;;;;;;;;;;;5059659;28;1301;-70
2022/05/11 15:28:21;;;;;;;;;;;;;;;;;;5059281;28;1232;-70
2022/05/11 15:30:47;;;;;;;;;;;;;;;;;;5060784;28;1902;-69
2022/05/11 15:33:15;;;;;;;;;;;;;;;;;;5060682;28;1436;-69
2022/05/11 15:35:40;;;;;;;;;;;;;;;;;;5060878;28;1239;-69
2022/05/11 15:38:06;;;;;;;;;;;;;;;;;;5059791;28;1495;-70
2022/05/11 15:40:31;;;;;;;;;;;;;;;;;;5060144;28;1294;-69
2022/05/11 15:42:58;;;;;;;;;;;;;;;;;;5060700;28;1263;-70
2022/05/11 15:45:24;;;;;;;;;;;;;;;;;;5060232;28;1191;-69
2022/05/11 15:47:49;;;;;;;;;;;;;;;;;;5058402;28;1360;-69
2022/05/11 15:50:14;;;;;;;;;;;;;;;;;;5060285;28;1952;-70
2022/05/11 15:52:43;;;;;;;;;;;;;;;;;;5060500;28;1199;-69
2022/05/11 15:55:08;;;;;;;;;;;;;;;;;;5060705;28;1453;-70
2022/05/11 15:57:34;;;;;;;;;;;;;;;;;;5061689;28;1357;-69
2022/05/11 16:00:00;;;;;;;;;;;;;;;;;;5062049;28;1267;-69
2022/05/11 16:02:26;;;;;;;;;;;;;;;;;;5059090;28;1167;-69
2022/05/11 16:04:52;;;;;;;;;;;;;;;;;;5060126;28;1175;-69
2022/05/11 16:07:17;;;;;;;;;;;;;;;;;;5058922;28;1271;-69
2022/05/11 16:09:42;;;;;;;;;;;;;;;;;;5060011;28;1898;-69
2022/05/11 16:12:09;;;;;;;;;;;;;;;;;;5060302;28;1314;-69
2022/05/11 16:14:35;;;;;;;;;;;;;;;;;;5058603;28;1262;-69
2022/05/11 16:19:50;;;;;;;;;;;;;;;;;;5059426;28;1695;-69
2022/05/11 16:19:51;;;;;;;;;;;;;;;;;;5058405;28;1298;-69
2022/05/11 16:22:17;;;;;;;;;;;;;;;;;;5058087;28;1351;-69
2022/05/11 16:24:42;;;;;;;;;;;;;;;;;;5059816;28;1211;-69
2022/05/11 16:27:07;;;;;;;;;;;;;;;;;;5059486;28;1255;-69
2022/05/11 16:29:33;;;;;;;;;;;;;;;;;;5059138;28;1957;-69
2022/05/11 16:31:58;;;;;;;;;;;;;;;;;;5059422;28;1321;-69
2022/05/11 16:34:24;;;;;;;;;;;;;;;;;;5059408;28;814;-69
2022/05/11 16:36:49;;;;;;;;;;;;;;;;;;5060237;28;795;-69
2022/05/11 16:39:16;;;;;;;;;;;;;;;;;;5059300;28;1200;-69
2022/05/11 16:41:42;;;;;;;;;;;;;;;;;;5059692;28;1226;-69
2022/05/11 16:44:07;;;;;;;;;;;;;;;;;;5059855;28;1224;-69
2022/05/11 16:46:32;;;;;;;;;;;;;;;;;;5060052;28;1242;-69
2022/05/11 16:48:58;;;;;;;;;;;;;;;;;;5056029;28;1951;-69
2022/05/11 16:51:23;;;;;;;;;;;;;;;;;;5057274;28;1513;-69
2022/05/11 16:53:49;;;;;;;;;;;;;;;;;;5055721;28;1640;-69
2022/05/11 16:56:14;;;;;;;;;;;;;;;;;;5059748;28;1314;-69
2022/05/11 16:58:40;;;;;;;;;;;;;;;;;;5056271;28;1553;-69
2022/05/11 17:01:05;;;;;;;;;;;;;;;;;;5056666;28;2986;-69
2022/05/11 17:03:31;;;;;;;;;;;;;;;;;;5058226;28;1497;-69
2022/05/11 17:05:56;;;;;;;;;;;;;;;;;;5056897;28;2747;-69
2022/05/11 17:08:21;;;;;;;;;;;;;;;;;;5058217;28;2441;-68
2022/05/11 17:10:47;;;;;;;;;;;;;;;;;;5054756;28;2105;-69
2022/05/11 17:13:13;;;;;;;;;;;;;;;;;;5056717;28;1671;-70
2022/05/11 17:15:39;;;;;;;;;;;;;;;;;;5059541;28;1199;-70
2022/05/11 17:18:05;;;;;;;;;;;;;;;;;;5057693;28;2903;-71
2022/05/11 17:20:35;;;;;;;;;;;;;;;;;;5060977;28;1427;-71
2022/05/11 17:23:00;;;;;;;;;;;;;;;;;;5061928;28;1375;-69
2022/05/11 17:25:26;;;;;;;;;;;;;;;;;;5060891;28;1596;-70
2022/05/11 17:27:51;;;;;;;;;;;;;;;;;;5062580;28;1342;-71
2022/05/11 17:30:16;;;;;;;;;;;;;;;;;;5062370;28;1890;-71
2022/05/11 17:32:41;;;;;;;;;;;;;;;;;;5057586;28;1640;-70
2022/05/11 17:35:07;;;;;;;;;;;;;;;;;;5061053;28;1505;-70
2022/05/11 17:37:32;;;;;;;;;;;;;;;;;;5061659;28;1489;-70
2022/05/11 17:39:57;;;;;;;;;;;;;;;;;;5060608;28;1643;-71
2022/05/11 17:42:22;;;;;;;;;;;;;;;;;;5059855;28;1604;-71
2022/05/11 17:44:48;;;;;;;;;;;;;;;;;;5061678;28;1585;-71
2022/05/11 17:47:13;;;;;;;;;;;;;;;;;;5062165;28;1286;-70
2022/05/11 17:49:38;;;;;;;;;;;;;;;;;;5059102;28;1985;-72
2022/05/11 17:52:04;;;;;;;;;;;;;;;;;;5060392;28;1781;-70
2022/05/11 17:54:29;;;;;;;;;;;;;;;;;;5061129;28;1596;-70
2022/05/11 17:56:55;;;;;;;;;;;;;;;;;;5061060;28;1635;-69
2022/05/11 17:59:20;;;;;;;;;;;;;;;;;;5059805;28;1435;-70